Latest Coastal Weather Observations for Gove Airport

IDD60701

Issued at 7:01 am CST Monday 21 September 2020 (issued every 10 minutes, with the page automatically refreshed every 10 minutes)

About coastal observations | Map of coastal stations | Coastal observations for NT | Marine services | Other Formats
Station Details ID: 014508 Name: GOVE AIRPORT Lat: -12.27 Lon: 136.82 Height: 51.6 m
Data from the previous 72 hours. | See also: Recent months at Gove Airport
Date/Time
CST
Wind Sea
Height
m
Swell Vis
km
Cloud Weather Temp
°C
Press
hPa
Rain since
9am
mm
Dir  Spd
kts
Gust
kts
Height
m
Period
s
Dir
21/07:00am CALM 0 0 - - - - 10 Partly cloudy - 23.4 1012.4 0.2
21/06:30am CALM 0 0 - - - - 10 Partly cloudy - 22.3 1012.0 0.2
21/06:00am SE 2 3 - - - - 10 Mostly clear - 22.5 1011.6 0.2
21/05:30am CALM 0 0 - - - - 10 Cloudy - 22.1 1011.3 0.2
21/05:00am CALM 0 0 - - - - 10 Partly cloudy - 22.4 1010.9 0.2
21/04:30am CALM 0 0 - - - - 10 - - 21.8 1010.4 0.2
21/04:00am CALM 0 0 - - - - 10 - - 22.4 1010.3 0.2
21/03:30am CALM 0 0 - - - - 10 - - 22.4 1010.5 0.2
21/03:00am S 1 4 - - - - 10 - - 22.3 1010.8 0.2
21/02:30am S 4 5 - - - - 10 - - 22.3 1010.8 0.2
21/02:00am S 1 4 - - - - 10 - - 22.5 1011.0 0.2
21/01:30am CALM 0 0 - - - - 10 - - 22.7 1011.2 0.2
21/01:00am CALM 0 0 - - - - 10 - - 22.9 1011.3 0.2
21/12:30am S 4 5 - - - - 10 - - 23.2 1011.9 0.2
21/12:00am SSW 3 4 - - - - 10 - - 23.3 1012.2 0.2
 
Date/Time
CST
Wind Sea
Height
m
Swell Vis
km
Cloud Weather Temp
°C
Press
hPa
Rain since
9am
mm
Dir  Spd
kts
Gust
kts
Height
m
Period
s
Dir
20/11:30pm CALM 0 0 - - - - 10 - - 23.8 1012.4 0.2
20/11:00pm CALM 0 0 - - - - 10 Partly cloudy - 24.2 1012.5 0.2
20/10:30pm E 2 4 - - - - 10 Partly cloudy - 24.4 1012.7 0.2
20/10:00pm SE 2 3 - - - - 10 Partly cloudy - 24.4 1012.7 0.2
20/09:30pm E 3 4 - - - - 10 - - 24.7 1012.7 0.2
20/09:00pm ESE 3 5 - - - - 10 - - 24.9 1012.5 0.2
20/08:30pm SE 3 4 - - - - 10 - - 25.0 1012.1 0.2
20/08:00pm ESE 5 6 - - - - 10 - - 25.3 1011.8 0.2
20/07:30pm ESE 6 7 - - - - 10 - - 25.7 1011.5 0.2
20/07:00pm ESE 6 8 - - - - 10 Partly cloudy - 25.9 1011.3 0.2
20/06:30pm E 9 10 - - - - 10 Partly cloudy - 26.3 1010.9 0.2
20/06:00pm ENE 7 11 - - - - 10 Mostly clear - 27.0 1010.7 0.2
20/05:30pm ENE 8 13 - - - - 10 Partly cloudy - 27.9 1010.4 0.2
20/05:00pm E 9 13 - - - - 10 Partly cloudy - 28.1 1010.2 0.2
20/04:30pm ENE 10 13 - - - - 10 Partly cloudy - 29.1 1010.2 0.2
20/04:00pm ENE 11 16 - - - - 10 Partly cloudy - 29.1 1010.2 0.2
20/03:30pm ENE 12 15 - - - - 10 Partly cloudy - 29.3 1010.2 0.2
20/03:00pm E 12 16 - - - - 10 Cloudy - 29.1 1010.3 0.2
20/02:30pm E 11 17 - - - - 10 Partly cloudy - 29.9 1010.4 0.2
20/02:00pm ENE 13 17 - - - - 10 Partly cloudy - 29.7 1010.8 0.2
20/01:30pm ENE 12 17 - - - - 10 Partly cloudy - 29.5 1011.2 0.2
20/01:00pm E 14 21 - - - - 10 Partly cloudy - 29.8 1011.7 0.2
20/12:30pm E 14 17 - - - - 10 Cloudy - 29.5 1012.0 0.2
20/12:00pm ENE 13 18 - - - - 10 Cloudy - 29.5 1012.4 0.2
20/11:30am ENE 15 19 - - - - 10 Partly cloudy - 29.5 1012.9 0.2
20/11:00am E 13 18 - - - - 10 Partly cloudy - 29.1 1013.4 0.2
20/10:30am ENE 16 22 - - - - 10 Partly cloudy - 28.1 1013.6 0.0
20/10:00am ENE 13 17 - - - - 10 Partly cloudy - 28.8 1013.6 0.0
20/09:30am ENE 14 20 - - - - 10 Partly cloudy - 28.7 1013.6 0.0
20/09:00am ENE 10 16 - - - - 10 Mostly cloudy Recent precip. 28.5 1013.6 0.8
20/08:57am ENE 11 16 - - - - 10 Partly cloudy - 28.0 1013.6 0.8
20/08:45am ENE 11 19 - - - - 10 Partly cloudy - 26.7 1013.6 0.8
20/08:42am ENE 9 14 - - - - 10 Partly cloudy - 27.1 1013.6 0.8
20/08:30am ENE 12 18 - - - - 6 Partly cloudy - 26.4 1013.5 0.8
20/08:29am ENE 12 18 - - - - 6 Partly cloudy - 26.7 1013.5 0.8
20/08:00am ENE 12 17 - - - - 10 Partly cloudy - 27.4 1013.2 0.6
20/07:41am ENE 13 19 - - - - 10 Partly cloudy - 27.3 1013.1 0.6
20/07:30am ENE 12 17 - - - - 10 Partly cloudy - 27.7 1012.9 0.6
20/07:00am ENE 9 13 - - - - 10 Partly cloudy - 26.3 1012.6 0.6
20/06:30am ENE 8 13 - - - - 10 Partly cloudy - 26.1 1012.2 0.6
20/06:16am E 7 10 - - - - 10 Partly cloudy - 26.0 1012.0 0.6
20/06:05am E 7 9 - - - - 10 Partly cloudy - 26.0 1011.9 0.6
20/06:00am ENE 8 11 - - - - 10 Cloudy - 26.0 1011.9 0.6
20/05:30am ENE 7 13 - - - - 10 Partly cloudy - 25.9 1011.5 0.6
20/05:15am E 7 10 - - - - 10 Partly cloudy - 25.7 1011.5 0.6
20/05:00am E 6 8 - - - - 10 Partly cloudy - 25.4 1011.3 0.6
20/04:57am E 6 7 - - - - 10 Partly cloudy - 25.4 1011.3 0.6
20/04:30am E 6 8 - - - - 10 Partly cloudy - 25.4 1011.1 0.6
20/04:20am E 6 8 - - - - 10 Partly cloudy - 25.4 1011.0 0.6
20/04:00am ESE 6 8 - - - - 10 Partly cloudy - 25.4 1011.0 0.6
20/03:30am ESE 7 9 - - - - 10 Cloudy - 25.6 1010.9 0.6
20/03:00am E 7 9 - - - - 10 Cloudy - 25.5 1011.1 0.6
20/02:30am E 7 9 - - - - 10 Partly cloudy - 25.5 1011.3 0.6
20/02:00am ESE 6 8 - - - - 10 Partly cloudy - 25.4 1011.6 0.6
20/01:30am E 6 7 - - - - 10 Partly cloudy - 25.4 1011.9 0.6
20/01:00am E 6 8 - - - - 10 Partly cloudy - 25.5 1012.3 0.6
20/12:30am E 7 9 - - - - 10 Partly cloudy - 25.4 1012.7 0.6
20/12:00am E 7 8 - - - - 10 Mostly cloudy - 25.3 1012.9 0.6
 
Date/Time
CST
Wind Sea
Height
m
Swell Vis
km
Cloud Weather Temp
°C
Press
hPa
Rain since
9am
mm
Dir  Spd
kts
Gust
kts
Height
m
Period
s
Dir
19/11:30pm E 7 10 - - - - 10 Partly cloudy - 25.3 1013.0 0.6
19/11:00pm ESE 8 10 - - - - 10 Cloudy - 25.3 1013.2 0.6
19/10:30pm ESE 6 8 - - - - 10 Partly cloudy - 25.2 1013.2 0.6
19/10:00pm E 6 8 - - - - 10 Partly cloudy - 25.0 1013.2 0.6
19/09:30pm ESE 7 8 - - - - 10 Partly cloudy - 24.8 1012.9 0.6
19/09:00pm ESE 7 8 - - - - 10 Mostly clear Recent precip. 24.7 1012.6 0.6
19/08:30pm ESE 6 8 - - - - 10 Partly cloudy - 24.8 1012.4 0.6
19/08:15pm ESE 6 7 - - - - 10 Partly cloudy - 24.9 1012.3 0.6
19/08:00pm ESE 7 10 - - - - 6 Partly cloudy - 24.9 1012.1 0.4
19/07:30pm ESE 6 9 - - - - 10 Partly cloudy - 24.6 1011.8 0.4
19/07:01pm ESE 9 11 - - - - 10 Partly cloudy - 24.4 1011.4 0.4
19/07:00pm ESE 9 11 - - - - 10 Partly cloudy - 24.4 1011.4 0.4
19/06:30pm E 8 10 - - - - 10 Partly cloudy - 24.8 1011.1 0.4
19/06:17pm E 10 13 - - - - 10 Partly cloudy - 24.9 1011.0 0.4
19/06:03pm E 11 15 - - - - 6 Partly cloudy - 25.6 1010.9 0.4
19/06:02pm E 11 15 - - - - 7 Partly cloudy - 25.7 1010.9 0.4
19/06:00pm E 11 15 - - - - 9 Cloudy - 25.9 1010.8 0.4
19/05:30pm ESE 12 15 - - - - 10 Partly cloudy - 26.6 1010.8 0.4
19/05:22pm E 11 15 - - - - 10 Partly cloudy - 26.7 1010.8 0.4
19/05:04pm E 13 17 - - - - 10 Partly cloudy - 26.8 1010.8 0.4
19/05:00pm E 13 16 - - - - 10 Partly cloudy - 27.7 1010.7 0.4
19/04:50pm ENE 11 16 - - - - 10 Partly cloudy - 27.1 1010.7 0.4
19/04:30pm ENE 12 17 - - - - 10 Partly cloudy - 25.4 1010.8 0.4
19/04:00pm E 10 15 - - - - 10 Partly cloudy - 28.6 1010.6 0.2
19/03:30pm E 13 18 - - - - 10 Partly cloudy - 27.9 1010.7 0.2
19/03:00pm E 13 18 - - - - 10 Cloudy - 28.6 1010.8 0.2
19/02:30pm ESE 13 18 - - - - 10 Partly cloudy - 28.7 1011.1 0.2
19/02:00pm E 15 19 - - - - 10 Partly cloudy - 29.0 1011.4 0.2
19/01:30pm E 15 20 - - - - 10 Partly cloudy - 29.0 1011.7 0.2
19/01:00pm ENE 14 20 - - - - 10 Partly cloudy - 29.3 1012.1 0.0
19/12:30pm ENE 13 16 - - - - 10 Partly cloudy - 29.5 1012.5 0.0
19/12:03pm E 12 16 - - - - 10 Partly cloudy - 28.5 1012.8 0.0
19/12:00pm E 11 16 - - - - 10 Cloudy - 28.7 1012.9 0.0
19/11:53am E 10 15 - - - - 10 Partly cloudy - 28.5 1013.0 0.0
19/11:30am E 14 20 - - - - 10 Partly cloudy - 27.6 1013.5 0.0
19/11:00am E 10 17 - - - - 10 Partly cloudy - 28.3 1013.9 0.0
19/10:30am ESE 11 15 - - - - 10 Partly cloudy - 28.1 1014.3 0.0
19/10:00am ESE 11 15 - - - - 10 Partly cloudy - 27.5 1014.5 0.0
19/09:30am E 11 15 - - - - 10 Cloudy - 26.4 1014.7 0.0
19/09:00am ESE 13 16 - - - - 10 Cloudy Recent precip. 25.6 1014.5 0.6
19/08:45am E 13 19 - - - - 6 Partly cloudy - 25.6 1014.4 0.6
19/08:30am ESE 11 14 - - - - 10 Partly cloudy - 27.8 1014.1 0.0
19/08:00am E 11 15 - - - - 10 Partly cloudy - 27.1 1013.9 0.0
19/07:30am E 9 11 - - - - 10 Partly cloudy - 26.6 1013.4 0.0
19/07:00am E 8 10 - - - - 10 Partly cloudy - 25.8 1012.9 0.0
19/06:30am E 6 7 - - - - 10 Partly cloudy - 25.5 1012.4 0.0
19/06:00am E 5 6 - - - - 10 Cloudy - 25.3 1011.9 0.0
19/05:30am ESE 4 5 - - - - 10 Partly cloudy - 25.2 1011.5 0.0
19/05:00am ESE 5 6 - - - - 10 Partly cloudy - 25.0 1011.2 0.0
19/04:30am E 5 7 - - - - 10 Partly cloudy - 25.0 1011.0 0.0
19/04:00am E 5 6 - - - - 10 Partly cloudy - 25.2 1011.1 0.0
19/03:30am SE 5 7 - - - - 10 - - 25.2 1011.2 0.0
19/03:00am ESE 6 7 - - - - 10 - - 25.4 1011.4 0.0
19/02:30am ESE 6 8 - - - - 10 Partly cloudy - 25.7 1011.7 0.0
19/02:00am SE 7 8 - - - - 10 Partly cloudy - 26.1 1011.8 0.0
19/01:30am ESE 7 8 - - - - 10 Cloudy - 26.5 1012.2 0.0
19/01:00am E 7 9 - - - - 10 Cloudy - 26.6 1012.4 0.0
19/12:30am ESE 7 9 - - - - 10 Cloudy - 26.5 1012.7 0.0
19/12:00am ESE 7 8 - - - - 10 Cloudy - 26.4 1012.9 0.0
 
Date/Time
CST
Wind Sea
Height
m
Swell Vis
km
Cloud Weather Temp
°C
Press
hPa
Rain since
9am
mm
Dir  Spd
kts
Gust
kts
Height
m
Period
s
Dir
18/11:30pm ESE 7 8 - - - - 10 Cloudy - 26.4 1013.1 0.0
18/11:00pm ESE 7 9 - - - - 10 Cloudy - 26.5 1013.2 0.0
18/10:30pm ESE 6 8 - - - - 10 Cloudy - 26.3 1013.1 0.0
18/10:00pm ESE 5 7 - - - - 10 Partly cloudy - 26.0 1013.1 0.0
18/09:30pm ESE 6 7 - - - - 10 - - 25.9 1012.9 0.0
18/09:00pm ESE 7 10 - - - - 10 Partly cloudy - 26.1 1012.8 0.0
18/08:30pm SE 7 9 - - - - 10 Partly cloudy - 26.2 1012.7 0.0
18/08:00pm SE 7 11 - - - - 10 Partly cloudy - 26.3 1012.5 0.0
18/07:40pm ESE 10 13 - - - - 10 Partly cloudy - 26.4 1012.4 0.0
18/07:30pm SE 9 13 - - - - 10 Partly cloudy - 26.5 1012.4 0.0
18/07:22pm SE 8 10 - - - - 10 Partly cloudy - 26.5 1012.3 0.0
18/07:00pm SE 8 10 - - - - 10 Partly cloudy - 26.7 1012.0 0.0
18/06:30pm ESE 9 11 - - - - 10 Partly cloudy - 26.8 1011.6 0.0
18/06:00pm ESE 10 15 - - - - 10 Mostly cloudy - 27.1 1011.6 0.0
18/05:30pm E 12 15 - - - - 10 Partly cloudy - 27.6 1011.3 0.0
18/05:00pm E 13 17 - - - - 10 Partly cloudy - 28.0 1011.2 0.0
18/04:30pm E 13 17 - - - - 10 Partly cloudy - 28.9 1011.1 0.0
18/04:00pm E 16 23 - - - - 10 Partly cloudy - 29.0 1011.1 0.0
18/03:30pm E 14 23 - - - - 10 Partly cloudy - 29.6 1011.1 0.0
18/03:00pm E 15 18 - - - - 10 Cloudy - 29.4 1011.3 0.0
18/02:30pm E 14 23 - - - - 10 Mostly cloudy - 29.7 1011.6 0.0
18/02:10pm E 15 25 - - - - 10 Partly cloudy - 30.0 1011.7 0.0
18/02:00pm E 15 19 - - - - 10 Partly cloudy - 29.9 1011.7 0.0
18/01:30pm E 17 24 - - - - 10 Partly cloudy - 30.3 1012.1 0.0
18/01:00pm E 17 24 - - - - 10 Partly cloudy - 30.3 1012.5 0.0
18/12:30pm E 18 25 - - - - 10 Partly cloudy - 30.1 1013.0 0.0
18/12:00pm E 16 23 - - - - 10 Partly cloudy - 30.4 1013.5 0.0
18/11:30am E 14 18 - - - - 10 Partly cloudy - 30.7 1014.1 0.0
18/11:00am ESE 16 21 - - - - 10 Partly cloudy - 30.0 1014.3 0.0
18/10:30am E 17 25 - - - - 10 Partly cloudy - 29.5 1014.7 0.0
18/10:24am E 15 25 - - - - 10 Partly cloudy - 29.2 1014.7 0.0
18/10:00am E 15 23 - - - - 10 Partly cloudy - 29.0 1014.8 0.0
18/09:30am ESE 18 24 - - - - 10 Partly cloudy - 28.7 1014.7 0.0
18/09:00am ESE 17 23 - - - - 10 Mostly cloudy - 28.4 1014.4 0.0
18/08:30am ESE 15 21 - - - - 10 Partly cloudy - 27.4 1013.9 0.0
18/08:00am ESE 14 19 - - - - 10 Partly cloudy - 27.7 1013.5 0.0
18/07:30am ESE 14 18 - - - - 10 Partly cloudy - 27.6 1013.1 0.0

Other formats

Comma delimited format used in spreadsheet applications
http://www.bom.gov.au/fwo/IDD60701/IDD60701.94150.axf

JavaScript Object Notation format (JSON) in row-major order
http://www.bom.gov.au/fwo/IDD60701/IDD60701.94150.json

Data quality

Most of these data are generated automatically and are frequently updated. Quality checks on data are not normally performed. It is possible for incorrect values to appear. Refer to information at About Latest Weather Observations and please check the disclaimer before using these data.